Alamosa, CO

10:33 AM MDT on August 20, 2014 (GMT -0600)
San Luis Valley Regional / Bergman Field | Change Station
CLOSE
Current Station
Airport
Location: Alamosa,
Elevation: 7543 ft
Nearby Weather Stations

Elev 7543 ft 37.44 °N, 105.86 °W | Updated 41 minutes ago

Partly Cloudy
Partly Cloudy
69 °F
Feels Like 69 °F
N
10
Wind Variable Wind from SW

Today
High -- | Low -- °F
--% Chance of Precip.
Yesterday
High -- | Low -- °F
Precip. -- in
6:23 AM 7:49 PM
Waning Crescent, 20% visible
Pressure 29.87 in
Visibility 10.0 miles
Clouds Few 11000 ft
Dew Point 48 °F
Humidity 47%
Rainfall 0.00 in
Snow Depth Not available.
UV 5 out of 12
Pollen 10.30 out of 12
Air Quality Not available.
Flu Activity Not available.
METAR KALS 201552Z AUTO 23009KT 10SM FEW110 21/09 A3017 RMK AO2 SLP115 T02060089

More Conditions Fewer Conditions

Pressure 29.87 in
Visibility 10.0 miles
Clouds Few 11000 ft
Dew Point 48 °F
Humidity 47%
Rainfall 0.00 in
Snow Depth Not available.
UV 5 out of 12
Pollen 10.30 out of 12
Air Quality Not available.
Flu Activity Not available.
METAR KALS 201552Z AUTO 23009KT 10SM FEW110 21/09 A3017 RMK AO2 SLP115 T02060089

More Conditions Fewer Conditions

10-Day Weather Forecast

Almanac

Astronomy

Aug. 20, 2014 Rise Set
Actual Time 6:23 AM MDT 7:49 PM MDT
Civil Twilight 5:56 AM MDT 8:16 PM MDT
Nautical Twilight 5:23 AM MDT 8:49 PM MDT
Astronomical Twilight 4:48 AM MDT 9:23 PM MDT
Moon 2:08 AM MDT 4:34 PM MDT
Length of Visible Light 14h 20m
Length of Day
13h 25m
Tomorrow will be 2m 11s shorter.
Waning Crescent, 20% of the Moon is Illuminated
Today
Waning Crescent
Aug 25
New
Sep 2
First Quarter
Sep 8
Full
Sep 15
Last Quarter

Today's Extremes

State Highs State Lows

Community

WunderPhotos

Upload Photos

1,745,689 photos uploaded!

Nearby

Snow Depth

Station Depth Elevation
Ute Creek 0 in 10650 ft
Medano Pass 0 in 9620 ft
Culebra #2 0 in 10500 ft
Cumbres Trestle 0 in 10020 ft
Wolf Creek Summit 0 in 11000 ft

Earthquake Activity

City Distance Mag. Time & Date
No recent earthquake activity has been reported nearby.
Minimum magnitude displayed is 2.5.

Coastal Water Temperatures

Place Temperature
No Stations Reporting

Nearby Weather Stations